Time;durP1;ratioP1;P1;durP2;ratioP2;P2;SDS_P1;SDS_P2;PMS_P1;PMS_P2;Temp;Humidity;BMP_temperature;BMP_pressure;BME280_temperature;BME280_humidity;BME280_pressure;Samples;Min_cycle;Max_cycle;Signal;HPM_P1;HPM_P2
2022/09/14 00:01:30;;;;;;;9.60;2.90;;;17.30;99.90;;;16.63;100.00;97293.72;4999213;28;20403;-69
2022/09/14 00:04:02;;;;;;;7.15;2.65;;;17.30;99.90;;;16.69;100.00;97296.72;5035007;28;20057;-69
2022/09/14 00:06:29;;;;;;;7.15;2.65;;;17.30;99.90;;;16.70;100.00;97293.16;4999652;28;20061;-69
2022/09/14 00:09:01;;;;;;;5.72;2.72;;;17.20;99.90;;;16.61;100.00;97288.56;5032211;28;20511;-70
2022/09/14 00:11:30;;;;;;;7.10;2.83;;;17.20;99.90;;;16.65;100.00;97290.03;5002275;28;20399;-68
2022/09/14 00:14:00;;;;;;;6.93;2.25;;;17.20;99.90;;;16.64;100.00;97290.97;5032403;28;20153;-70
2022/09/14 00:16:35;;;;;;;9.65;2.78;;;17.30;99.90;;;16.65;100.00;97290.03;5032207;28;20170;-69
2022/09/14 00:19:22;;;;;;;11.60;3.40;;;17.30;99.90;;;16.56;100.00;97280.22;5002855;28;20415;-69
2022/09/14 00:21:55;;;;;;;8.48;3.08;;;17.20;99.90;;;16.52;100.00;97269.09;5017855;28;20049;-68
2022/09/14 00:24:25;;;;;;;7.45;2.88;;;17.10;99.90;;;16.49;100.00;97263.25;4998176;28;20472;-69
2022/09/14 00:26:52;;;;;;;5.65;1.90;;;17.10;99.90;;;16.54;100.00;97266.38;5016193;28;20045;-68
2022/09/14 00:29:20;;;;;;;5.65;2.05;;;17.20;99.90;;;16.53;100.00;97262.06;5003510;28;20050;-69
2022/09/14 00:31:47;;;;;;;5.28;2.25;;;17.20;99.90;;;16.50;100.00;97264.91;4986494;28;20137;-67
2022/09/14 00:34:15;;;;;;;6.88;2.38;;;17.10;99.90;;;16.57;100.00;97276.63;4999105;28;20038;-72
2022/09/14 00:36:46;;;;;;;5.00;2.00;;;17.10;99.90;;;16.46;100.00;97272.16;5002160;28;20046;-68
2022/09/14 00:39:15;;;;;;;4.55;1.80;;;17.10;99.90;;;16.52;100.00;97269.09;4999236;28;20628;-69
2022/09/14 00:41:44;;;;;;;7.57;1.63;;;17.00;99.90;;;16.52;100.00;97258.63;5004044;28;20046;-70
2022/09/14 00:44:14;;;;;;;8.65;2.25;;;17.10;99.90;;;16.46;100.00;97245.94;5031738;28;20054;-69
2022/09/14 00:46:47;;;;;;;8.25;3.00;;;17.00;99.90;;;16.30;100.00;97230.50;5002126;28;20057;-70
2022/09/14 00:49:23;;;;;;;8.55;3.33;;;16.90;99.90;;;16.17;100.00;97232.34;4996007;28;20060;-69
2022/09/14 00:51:57;;;;;;;8.55;2.90;;;16.80;99.90;;;16.15;100.00;97235.97;5031695;28;20786;-69
2022/09/14 00:54:25;;;;;;;5.85;2.65;;;16.80;99.90;;;16.14;100.00;97244.78;5002441;28;20076;-69
2022/09/14 00:56:53;;;;;;;6.57;3.42;;;16.80;99.90;;;16.16;100.00;97250.75;5004280;28;20141;-68
2022/09/14 00:59:29;;;;;;;9.77;4.90;;;16.80;99.90;;;16.18;100.00;97248.88;5004976;28;20038;-70
2022/09/14 01:01:56;;;;;;;8.65;4.15;;;16.80;99.90;;;16.23;100.00;97242.34;5000225;28;20061;-69
2022/09/14 01:04:23;;;;;;;6.13;4.00;;;16.80;99.90;;;16.19;100.00;97227.78;5005143;28;20511;-70
2022/09/14 01:07:33;;;;;;;7.88;4.75;;;16.80;99.90;;;16.18;100.00;97223.53;5016427;28;20061;-68
2022/09/14 01:10:11;;;;;;;6.30;4.70;;;16.80;99.90;;;16.18;100.00;97223.53;5003655;28;20046;-69
2022/09/14 01:12:57;;;;;;;9.27;4.95;;;16.80;99.90;;;16.24;100.00;97223.09;5003987;28;20129;-70
2022/09/14 01:15:55;;;;;;;10.80;4.93;;;16.90;99.90;;;16.28;100.00;97232.41;5002805;28;20093;-69
2022/09/14 01:18:32;;;;;;;12.13;5.38;;;16.90;99.90;;;16.22;100.00;97259.03;5002577;28;20062;-69
2022/09/14 01:21:31;;;;;;;8.70;6.38;;;16.90;99.90;;;16.18;100.00;97268.03;5000589;28;20056;-68
2022/09/14 01:24:32;;;;;;;12.15;7.53;;;16.80;99.90;;;16.15;100.00;97265.63;5033676;28;20046;-71
2022/09/14 01:27:33;;;;;;;13.20;8.02;;;16.80;99.90;;;16.16;100.00;97248.16;5017504;28;20057;-71
2022/09/14 01:30:11;;;;;;;14.55;6.00;;;16.80;99.90;;;16.22;100.00;97248.56;5035402;28;20061;-71
2022/09/14 01:32:44;;;;;;;10.85;6.38;;;16.80;99.90;;;16.18;100.00;97244.47;5034999;28;20111;-71
2022/09/14 01:35:26;;;;;;;6.35;3.25;;;16.80;99.90;;;16.19;100.00;97242.69;4997947;28;20053;-70
2022/09/14 01:38:17;;;;;;;10.40;4.07;;;16.80;99.90;;;16.22;100.00;97239.88;5032987;28;20498;-68
2022/09/14 01:40:48;;;;;;;7.97;3.50;;;16.80;99.90;;;16.24;100.00;97236.19;5011251;28;20657;-70
2022/09/14 01:43:39;;;;;;;6.15;3.70;;;16.80;99.90;;;16.16;100.00;97227.19;4998950;28;20045;-70
2022/09/14 01:46:17;;;;;;;5.90;3.22;;;16.80;99.90;;;16.15;100.00;97228.97;5000019;28;20057;-69
2022/09/14 01:49:31;;;;;;;7.45;2.83;;;16.80;99.90;;;16.19;100.00;97240.88;5001239;28;20057;-70
2022/09/14 01:52:12;;;;;;;8.95;2.88;;;16.80;99.90;;;16.14;100.00;97240.38;5034285;28;20057;-68
2022/09/14 01:54:44;;;;;;;3.83;2.42;;;16.80;99.90;;;16.18;100.00;97243.63;5034377;28;20046;-69
2022/09/14 01:57:16;;;;;;;4.75;2.25;;;16.80;99.90;;;16.22;100.00;97243.31;5031715;28;20076;-69
2022/09/14 01:59:46;;;;;;;6.13;2.90;;;16.80;99.90;;;16.16;100.00;97240.28;5000971;28;20061;-69
2022/09/14 02:02:38;;;;;;;6.25;2.97;;;16.80;99.90;;;16.25;100.00;97250.13;5036014;28;20525;-68
2022/09/14 02:05:39;;;;;;;4.95;2.55;;;16.80;99.90;;;16.09;100.00;97255.59;5002462;28;20153;-69
2022/09/14 02:08:07;;;;;;;5.13;2.42;;;16.80;99.90;;;16.06;100.00;97274.97;5030948;28;20063;-69
2022/09/14 02:10:35;;;;;;;8.45;3.08;;;16.80;99.90;;;16.01;100.00;97271.84;5032839;28;20072;-69
2022/09/14 02:13:02;;;;;;;5.85;2.85;;;16.80;99.90;;;16.02;100.00;97281.34;5003098;28;20527;-69
2022/09/14 02:15:29;;;;;;;6.78;2.75;;;16.70;99.90;;;16.09;100.00;97287.84;4998369;28;20057;-69
2022/09/14 02:17:56;;;;;;;5.53;2.72;;;16.70;99.90;;;16.20;100.00;97304.59;4998880;28;20140;-69
2022/09/14 02:20:35;;;;;;;6.57;2.40;;;16.70;99.90;;;16.26;100.00;97317.25;5032595;28;20698;-67
2022/09/14 02:23:04;;;;;;;5.90;2.38;;;16.80;99.90;;;16.25;100.00;97323.44;5034872;28;20384;-69
2022/09/14 02:25:32;;;;;;;18.35;5.65;;;16.90;99.90;;;16.22;100.00;97277.34;5000301;28;20069;-69
2022/09/14 02:27:58;;;;;;;15.55;5.82;;;16.90;99.90;;;16.13;100.00;97279.78;5032846;28;20505;-69
2022/09/14 02:30:27;;;;;;;14.25;6.30;;;16.80;99.90;;;16.07;100.00;97271.41;5016036;28;20053;-69
2022/09/14 02:33:17;;;;;;;6.70;3.38;;;16.70;99.90;;;16.03;100.00;97267.34;4996666;28;20042;-69
2022/09/14 02:35:53;;;;;;;6.03;2.72;;;16.70;99.90;;;15.99;100.00;97272.91;4997971;28;20045;-69
2022/09/14 02:38:58;;;;;;;5.72;2.83;;;16.70;99.90;;;16.03;100.00;97272.56;5000069;28;20042;-69
2022/09/14 02:42:03;;;;;;;7.28;3.55;;;16.70;99.90;;;16.04;100.00;97276.03;5002633;28;20057;-69
2022/09/14 02:45:01;;;;;;;6.72;3.70;;;16.70;99.90;;;16.02;100.00;97273.50;5032663;28;20050;-70
2022/09/14 02:47:37;;;;;;;10.25;4.95;;;16.60;99.90;;;16.04;100.00;97260.31;5035138;28;20046;-70
2022/09/14 02:50:35;;;;;;;8.45;4.43;;;16.60;99.90;;;16.02;100.00;97257.78;4998686;28;20047;-69
2022/09/14 02:53:25;;;;;;;6.43;3.17;;;16.60;99.90;;;16.08;100.00;97251.31;5001705;28;20049;-68
2022/09/14 02:56:00;;;;;;;6.72;4.45;;;16.60;99.90;;;16.11;100.00;97251.09;5032664;28;20061;-70
2022/09/14 02:58:43;;;;;;;7.40;3.95;;;16.70;99.90;;;16.11;100.00;97245.84;5030685;28;20547;-68
2022/09/14 03:01:17;;;;;;;6.18;3.05;;;16.70;99.90;;;16.07;100.00;97239.16;4999968;28;20069;-68
2022/09/14 03:03:44;;;;;;;7.43;4.60;;;16.70;99.90;;;16.09;100.00;97242.50;5034339;28;20046;-69
2022/09/14 03:06:11;;;;;;;3.78;2.38;;;16.80;99.90;;;16.14;100.00;97243.00;5002623;28;20061;-68
2022/09/14 03:08:40;;;;;;;4.85;3.20;;;16.80;99.90;;;16.18;100.00;97241.03;5000132;28;20072;-69
2022/09/14 03:11:07;;;;;;;4.68;2.30;;;16.80;99.90;;;16.17;100.00;97240.19;5001251;28;20482;-68
2022/09/14 03:13:35;;;;;;;7.05;2.90;;;16.80;99.90;;;16.16;100.00;97240.28;5001357;28;20054;-69
2022/09/14 03:16:10;;;;;;;3.22;2.47;;;16.90;99.90;;;16.20;100.00;97242.59;5032346;28;20057;-68
2022/09/14 03:18:38;;;;;;;4.93;3.28;;;16.90;99.90;;;16.18;100.00;97235.78;5030157;28;20061;-69
2022/09/14 03:21:12;;;;;;;5.43;3.50;;;16.90;99.90;;;16.27;100.00;97240.38;4999452;28;20088;-69
2022/09/14 03:23:48;;;;;;;6.05;3.90;;;17.00;99.90;;;16.30;100.00;97232.28;5002812;28;20061;-69
2022/09/14 03:26:22;;;;;;;6.88;4.45;;;16.90;99.90;;;16.30;100.00;97229.66;4998889;28;20064;-68
2022/09/14 03:28:55;;;;;;;5.82;4.00;;;17.00;99.90;;;16.36;100.00;97225.78;5015770;28;20072;-68
2022/09/14 03:31:23;;;;;;;4.82;2.88;;;17.00;99.90;;;16.39;100.00;97220.31;5001003;28;20057;-69
2022/09/14 03:33:55;;;;;;;5.60;2.97;;;17.00;99.90;;;16.31;100.00;97195.50;5004254;28;20058;-68
2022/09/14 03:36:25;;;;;;;4.97;2.58;;;17.00;99.90;;;16.30;100.00;97201.69;5004716;28;20056;-69
2022/09/14 03:38:55;;;;;;;5.53;3.72;;;17.00;99.90;;;16.26;100.00;97199.41;5037094;28;20333;-69
2022/09/14 03:41:23;;;;;;;6.78;3.25;;;16.80;99.90;;;16.14;100.00;97202.91;5039293;28;20064;-68
2022/09/14 03:43:50;;;;;;;7.32;3.60;;;16.80;99.90;;;15.94;100.00;97197.28;4999248;28;20112;-68
2022/09/14 03:46:22;;;;;;;10.48;3.70;;;16.80;99.90;;;15.89;100.00;97204.63;5004770;28;20053;-68
2022/09/14 03:48:50;;;;;;;6.88;4.15;;;16.70;99.90;;;15.88;100.00;97193.31;5005748;28;20156;-69
2022/09/14 03:51:17;;;;;;;8.05;4.07;;;16.70;99.90;;;15.87;100.00;97215.22;5005354;28;20046;-68
2022/09/14 03:53:45;;;;;;;4.85;3.63;;;16.70;99.90;;;15.84;100.00;97214.59;5007014;28;20065;-70
2022/09/14 03:56:19;;;;;;;5.75;3.50;;;16.60;99.90;;;15.86;100.00;97217.94;5039150;28;20065;-69
2022/09/14 03:58:48;;;;;;;7.95;4.93;;;16.60;99.90;;;15.83;100.00;97223.41;5005517;28;20487;-69
2022/09/14 04:01:19;;;;;;;6.35;3.45;;;16.60;99.90;;;15.92;100.00;97227.13;5004278;28;20053;-69
2022/09/14 04:03:47;;;;;;;12.27;3.13;;;16.60;99.90;;;15.96;100.00;97229.41;5007319;28;20046;-69
2022/09/14 04:06:15;;;;;;;3.88;2.70;;;16.60;99.90;;;15.93;100.00;97232.25;5035501;28;20458;-69
2022/09/14 04:08:44;;;;;;;3.90;1.70;;;16.60;99.90;;;16.03;100.00;97235.06;4999417;28;20045;-70
2022/09/14 04:11:18;;;;;;;3.63;1.77;;;16.60;99.90;;;15.98;100.00;97232.78;5005057;28;20117;-70
2022/09/14 04:13:46;;;;;;;3.25;1.73;;;16.70;99.90;;;15.98;100.00;97242.41;5005335;28;20129;-72
2022/09/14 04:16:14;;;;;;;2.33;1.45;;;16.70;99.90;;;16.01;100.00;97244.81;5034095;28;20065;-70
2022/09/14 04:18:42;;;;;;;3.80;1.90;;;16.70;99.90;;;15.95;100.00;97246.09;5004060;28;20503;-72
2022/09/14 04:21:16;;;;;;;4.45;2.80;;;16.70;99.90;;;16.00;100.00;97249.22;5003716;28;20057;-69
2022/09/14 04:23:43;;;;;;;7.13;4.35;;;16.70;99.90;;;16.04;100.00;97239.38;5006410;28;20573;-68
2022/09/14 04:26:31;;;;;;;6.93;4.13;;;16.70;99.90;;;16.08;100.00;97243.47;5004763;28;20049;-71
2022/09/14 04:28:58;;;;;;;5.20;3.90;;;16.70;99.90;;;16.01;100.00;94245.91;5004075;28;20046;-71
2022/09/14 04:31:25;;;;;;;7.90;5.00;;;16.70;99.90;;;16.08;100.00;94333.97;5004296;28;20073;-71
2022/09/14 04:33:55;;;;;;;5.75;4.47;;;16.70;99.90;;;16.08;100.00;94372.41;5003439;28;20754;-71
2022/09/14 04:36:27;;;;;;;6.13;4.10;;;16.70;99.90;;;16.15;100.00;94394.25;5005896;28;20371;-70
2022/09/14 04:38:56;;;;;;;5.30;3.00;;;16.70;99.90;;;16.04;100.00;94424.25;5036300;28;20046;-69
2022/09/14 04:41:25;;;;;;;9.82;7.22;;;16.80;99.90;;;16.05;100.00;94430.31;5000816;28;20600;-70
2022/09/14 04:43:54;;;;;;;5.82;4.15;;;16.70;99.90;;;16.10;100.00;94444.50;5003571;28;20195;-69
2022/09/14 04:46:38;;;;;;;4.47;3.50;;;16.70;99.90;;;16.14;100.00;94451.97;5004158;28;20069;-70
2022/09/14 04:49:13;;;;;;;9.57;4.82;;;16.70;99.90;;;16.21;100.00;94450.28;5006850;28;20117;-70
2022/09/14 04:51:40;;;;;;;6.40;3.40;;;16.80;99.90;;;16.22;100.00;94463.22;5004023;28;20049;-70
2022/09/14 04:54:08;;;;;;;5.75;3.08;;;16.90;99.90;;;16.30;100.00;94478.81;5004030;28;20042;-70
2022/09/14 04:56:36;;;;;;;4.90;3.47;;;16.90;99.90;;;16.35;100.00;94487.97;5001787;28;20050;-70
2022/09/14 04:59:04;;;;;;;10.10;6.03;;;16.90;99.90;;;16.26;100.00;94508.13;4999015;28;20719;-71
2022/09/14 05:01:41;;;;;;;6.65;4.45;;;16.90;99.90;;;16.20;100.00;94532.41;4999832;28;20125;-69
2022/09/14 05:04:10;;;;;;;2.88;2.15;;;16.90;99.90;;;16.31;100.00;94522.34;5002975;28;20050;-69
2022/09/14 05:06:39;;;;;;;5.57;3.63;;;16.90;99.90;;;16.39;100.00;94528.50;5004395;28;20530;-71
2022/09/14 05:09:14;;;;;;;12.45;8.50;;;17.00;99.90;;;16.24;100.00;94557.25;5036871;28;20046;-70
2022/09/14 05:11:41;;;;;;;7.22;4.22;;;16.90;99.90;;;16.13;100.00;94571.53;5036180;28;20097;-70
2022/09/14 05:14:12;;;;;;;3.83;2.45;;;16.90;99.90;;;16.12;100.00;94575.13;5004340;28;20049;-69
2022/09/14 05:16:40;;;;;;;3.58;2.38;;;16.90;99.90;;;16.33;100.00;94576.31;5035766;28;20133;-70
2022/09/14 05:19:13;;;;;;;7.22;4.38;;;16.90;99.90;;;16.16;100.00;94610.44;5007322;28;20077;-70
2022/09/14 05:21:40;;;;;;;6.63;4.13;;;16.90;99.90;;;16.10;100.00;94618.97;5005461;28;20084;-69
2022/09/14 05:24:16;;;;;;;5.68;3.28;;;16.90;99.90;;;16.10;100.00;94613.72;5003613;28;20574;-69
2022/09/14 05:26:45;;;;;;;5.00;4.07;;;16.90;99.90;;;16.02;100.00;94632.09;5006713;28;20404;-70
2022/09/14 05:29:17;;;;;;;3.33;2.15;;;16.80;99.90;;;16.18;100.00;94623.34;5004023;28;20523;-70
2022/09/14 05:31:45;;;;;;;6.93;4.90;;;16.80;99.90;;;16.06;100.00;94636.81;5034081;28;20046;-70
2022/09/14 05:34:12;;;;;;;6.40;4.53;;;16.80;99.90;;;16.02;100.00;94622.44;4998664;28;20049;-70
2022/09/14 05:36:39;;;;;;;4.75;2.55;;;16.80;99.90;;;16.17;100.00;94619.09;5004454;28;20054;-68
2022/09/14 05:39:07;;;;;;;3.42;2.75;;;16.80;99.90;;;16.17;100.00;94609.47;5003691;28;20049;-70
2022/09/14 05:41:36;;;;;;;4.30;3.15;;;16.90;99.90;;;16.24;100.00;94597.31;5001505;28;20053;-70
2022/09/14 05:44:04;;;;;;;5.97;3.90;;;16.90;99.90;;;16.23;100.00;94611.38;5035627;28;20049;-69
2022/09/14 05:46:31;;;;;;;5.22;3.10;;;16.90;99.90;;;16.16;100.00;94623.53;5003198;28;20060;-69
2022/09/14 05:48:58;;;;;;;5.25;3.40;;;16.90;99.90;;;16.15;100.00;94632.38;5004013;28;20056;-71
2022/09/14 05:51:27;;;;;;;8.38;3.83;;;16.80;99.90;;;16.18;100.00;94618.13;5005608;28;20054;-69
2022/09/14 05:53:56;;;;;;;5.00;2.88;;;16.80;99.90;;;16.25;100.00;94603.34;5004167;28;20095;-69
2022/09/14 05:56:27;;;;;;;6.03;3.53;;;16.90;99.90;;;16.20;100.00;94626.63;5034751;28;20054;-70
2022/09/14 05:58:55;;;;;;;6.28;4.20;;;16.90;99.90;;;16.03;100.00;94380.78;5001433;28;20066;-69
2022/09/14 06:01:25;;;;;;;4.93;3.45;;;16.80;99.90;;;16.10;100.00;94129.72;5003246;28;20650;-70
2022/09/14 06:03:54;;;;;;;4.95;2.95;;;16.80;99.90;;;16.24;100.00;94238.00;5001193;28;20077;-68
2022/09/14 06:06:22;;;;;;;5.70;3.83;;;16.90;99.90;;;16.19;100.00;94319.63;5001662;28;20046;-71
2022/09/14 06:08:52;;;;;;;9.43;4.75;;;16.90;99.90;;;16.06;100.00;94377.81;5010642;28;20114;-70
2022/09/14 06:11:30;;;;;;;10.93;6.30;;;16.80;99.90;;;16.06;100.00;94396.13;5036400;28;20038;-70
2022/09/14 06:13:58;;;;;;;6.45;4.30;;;16.90;99.90;;;16.26;100.00;94396.44;5002290;28;20073;-69
2022/09/14 06:16:26;;;;;;;11.27;6.07;;;17.00;99.90;;;16.36;100.00;94403.22;5033449;28;20054;-70
2022/09/14 06:18:56;;;;;;;15.63;8.70;;;17.00;99.90;;;16.29;100.00;94424.88;5034271;28;20061;-69
2022/09/14 06:21:31;;;;;;;23.05;9.65;;;17.00;99.90;;;16.20;100.00;94441.63;5033167;28;20143;-69
2022/09/14 06:23:59;;;;;;;16.33;9.43;;;17.10;99.90;;;16.25;100.00;94468.06;5001386;28;20053;-69
2022/09/14 06:26:26;;;;;;;17.15;10.88;;;17.00;99.90;;;16.37;100.00;94463.22;5005567;28;20049;-69
2022/09/14 06:28:53;;;;;;;34.17;13.23;;;17.10;99.90;;;16.28;100.00;94142.41;5036862;28;20061;-68
2022/09/14 06:31:21;;;;;;;45.95;15.68;;;17.10;99.90;;;16.35;100.00;94148.50;5006085;28;20056;-69
2022/09/14 06:33:50;;;;;;;47.55;16.90;;;17.00;99.90;;;16.33;100.00;94197.63;5005008;28;20180;-70
2022/09/14 06:36:22;;;;;;;68.72;18.60;;;17.00;99.90;;;16.35;100.00;94219.16;5036507;28;20100;-68
2022/09/14 06:38:49;;;;;;;93.18;21.05;;;17.10;99.90;;;16.29;100.00;94243.47;5036890;28;20080;-68
2022/09/14 06:41:21;;;;;;;81.25;21.92;;;17.20;99.90;;;16.31;100.00;94250.16;5035481;28;20440;-70
2022/09/14 06:43:49;;;;;;;81.15;23.17;;;17.20;99.90;;;16.24;100.00;94010.31;5036011;28;20057;-69
2022/09/14 06:46:26;;;;;;;56.90;16.35;;;17.30;99.90;;;16.29;100.00;94010.56;5000967;28;20110;-68
2022/09/14 06:48:59;;;;;;;126.93;22.98;;;17.30;99.90;;;16.24;100.00;94053.00;4999670;28;20049;-69
2022/09/14 06:51:34;;;;;;;128.55;25.15;;;17.40;99.90;;;16.30;100.00;94049.63;5003642;28;20061;-70
2022/09/14 06:54:02;;;;;;;165.38;27.55;;;17.40;99.90;;;16.33;100.00;94039.78;5035278;28;20089;-69
2022/09/14 06:56:36;;;;;;;187.63;26.75;;;17.40;99.90;;;16.47;100.00;94034.50;5016861;28;20530;-70
2022/09/14 06:59:04;;;;;;;48.70;17.13;;;17.40;99.90;;;16.65;100.00;94041.06;5030961;28;20048;-69
2022/09/14 07:01:32;;;;;;;235.23;27.65;;;17.50;99.90;;;16.52;100.00;94067.94;5038129;28;20049;-70
2022/09/14 07:04:00;;;;;;;212.05;25.55;;;17.60;99.90;;;16.63;100.00;94030.78;5030994;28;20038;-68
2022/09/14 07:06:40;;;;;;;276.80;30.52;;;17.60;99.90;;;16.60;100.00;94036.38;5022909;28;20466;-70
2022/09/14 07:09:07;;;;;;;73.60;17.92;;;17.60;99.90;;;16.85;100.00;94013.22;5001395;28;20053;-70
2022/09/14 07:11:35;;;;;;;72.95;18.25;;;17.60;99.90;;;16.83;100.00;94010.03;5004030;28;20056;-69
2022/09/14 07:14:02;;;;;;;79.45;20.65;;;17.80;99.90;;;16.88;100.00;94001.59;5008208;28;20057;-70
2022/09/14 07:16:31;;;;;;;73.13;20.33;;;18.00;99.90;;;16.88;100.00;94022.53;5019125;28;20785;-71
2022/09/14 07:19:01;;;;;;;71.47;21.00;;;18.10;99.90;;;16.95;100.00;94019.97;5004915;28;20065;-71
2022/09/14 07:21:30;;;;;;;48.13;18.55;;;18.20;99.90;;;17.11;100.00;93999.50;5005491;28;20053;-70
2022/09/14 07:23:57;;;;;;;34.15;15.00;;;18.30;99.90;;;17.29;100.00;93985.09;5004843;28;20054;-68
2022/09/14 07:26:32;;;;;;;38.78;16.23;;;18.40;99.90;;;17.40;100.00;93973.22;5007294;28;20054;-69
2022/09/14 07:29:03;;;;;;;48.50;19.00;;;18.50;99.90;;;17.33;100.00;93979.28;5002343;28;20058;-69
2022/09/14 07:31:44;;;;;;;39.58;18.67;;;18.50;99.90;;;17.33;100.00;93965.34;5005727;28;20056;-69
2022/09/14 07:34:12;;;;;;;37.08;19.13;;;18.60;99.90;;;17.49;100.00;93957.16;4986487;28;20053;-69
2022/09/14 07:36:40;;;;;;;42.13;18.38;;;18.70;99.90;;;17.66;100.00;93964.66;4997456;28;20069;-70
2022/09/14 07:39:10;;;;;;;35.67;18.77;;;18.80;99.90;;;17.61;100.00;93970.50;5005416;28;20468;-69
2022/09/14 07:41:37;;;;;;;34.75;16.60;;;18.90;99.90;;;17.80;100.00;93966.31;5004980;28;20062;-69
2022/09/14 07:44:07;;;;;;;47.60;18.77;;;18.90;99.90;;;17.55;100.00;93997.50;5004660;28;20057;-69
2022/09/14 07:46:40;;;;;;;65.75;19.58;;;18.90;99.90;;;17.44;100.00;94025.06;5020760;28;20560;-70
2022/09/14 07:49:08;;;;;;;78.38;22.38;;;18.80;99.90;;;17.44;100.00;94032.94;5004295;28;20061;-69
2022/09/14 07:51:37;;;;;;;57.97;20.77;;;18.80;99.90;;;17.57;100.00;94034.81;5037906;28;20060;-68
2022/09/14 07:54:06;;;;;;;108.70;22.90;;;18.90;99.90;;;17.35;100.00;94049.84;5003829;28;20178;-69
2022/09/14 07:56:34;;;;;;;98.32;23.55;;;18.80;99.90;;;17.31;100.00;94046.81;5037574;28;20065;-69
2022/09/14 07:59:02;;;;;;;95.97;22.13;;;18.60;99.90;;;17.38;100.00;94018.00;5004813;28;20076;-69
2022/09/14 08:01:50;;;;;;;141.77;25.02;;;18.70;99.90;;;17.36;100.00;93993.78;5005710;28;20128;-68
2022/09/14 08:04:17;;;;;;;99.30;22.60;;;18.60;99.90;;;17.49;100.00;93998.28;5004257;28;20049;-68
2022/09/14 08:06:44;;;;;;;63.10;16.58;;;18.60;99.90;;;17.55;100.00;93625.97;5036455;28;20061;-69
2022/09/14 08:09:11;;;;;;;57.60;17.75;;;18.60;99.90;;;17.61;100.00;93652.38;5005297;28;20057;-69
2022/09/14 08:11:38;;;;;;;37.97;17.88;;;18.60;99.90;;;17.76;100.00;93645.88;5005855;28;20050;-68
2022/09/14 08:14:09;;;;;;;69.75;20.10;;;18.70;99.90;;;17.73;100.00;93642.88;5003176;28;20046;-69
2022/09/14 08:16:37;;;;;;;81.00;21.92;;;18.70;99.90;;;17.69;100.00;93676.56;5000865;28;20145;-69
2022/09/14 08:19:11;;;;;;;87.32;21.90;;;18.80;99.90;;;17.64;100.00;93701.81;5006454;28;20125;-69
2022/09/14 08:21:38;;;;;;;76.72;23.17;;;18.90;99.90;;;17.76;100.00;93653.75;5037516;28;20061;-69
2022/09/14 08:24:13;;;;;;;71.53;23.38;;;18.90;99.90;;;17.77;100.00;93670.31;5006110;28;20107;-68
2022/09/14 08:26:40;;;;;;;96.85;24.17;;;19.00;99.90;;;17.84;100.00;93702.63;5006063;28;20060;-68
2022/09/14 08:29:07;;;;;;;58.97;20.63;;;19.10;99.90;;;17.90;100.00;93728.03;5002708;28;20082;-68
2022/09/14 08:31:38;;;;;;;42.35;20.92;;;19.20;99.90;;;18.18;100.00;93732.22;5004481;28;20076;-70
2022/09/14 08:34:06;;;;;;;43.17;20.00;;;19.40;99.90;;;18.27;100.00;93757.22;5001313;28;20452;-68
2022/09/14 08:36:36;;;;;;;40.55;20.88;;;19.60;99.90;;;18.47;100.00;93770.28;5032325;28;20149;-68
2022/09/14 08:39:09;;;;;;;34.20;19.17;;;19.70;99.90;;;18.62;100.00;93780.53;5002476;28;20053;-70
2022/09/14 08:41:42;;;;;;;25.02;15.18;;;19.70;99.90;;;18.83;100.00;93782.09;5006449;28;20060;-69
2022/09/14 08:44:34;;;;;;;35.80;17.27;;;19.80;99.90;;;18.63;100.00;93816.28;5004772;28;20117;-68
2022/09/14 08:47:18;;;;;;;24.90;15.83;;;19.80;99.90;;;18.95;100.00;93804.09;5004489;28;20092;-69
2022/09/14 08:49:51;;;;;;;24.67;14.50;;;20.10;99.90;;;19.32;100.00;93812.19;5035633;28;20060;-68
2022/09/14 08:52:24;;;;;;;18.23;12.98;;;20.30;99.90;;;19.16;100.00;93841.59;5033149;28;20060;-68
2022/09/14 08:54:59;;;;;;;17.73;13.07;;;20.70;99.90;;;19.96;100.00;93812.97;5005534;28;20081;-69
2022/09/14 08:57:42;;;;;;;20.38;13.32;;;21.00;99.90;;;19.74;100.00;93838.84;5006858;28;20053;-68
2022/09/14 09:00:15;;;;;;;16.70;11.57;;;21.40;99.90;;;19.95;100.00;93835.03;5038038;28;20045;-69
2022/09/14 09:03:17;;;;;;;21.33;11.70;;;21.50;99.90;;;20.77;100.00;93799.84;5004025;28;20492;-68
2022/09/14 09:06:11;;;;;;;20.70;12.93;;;21.80;99.90;;;20.19;100.00;93878.19;5036329;28;20046;-68
2022/09/14 09:09:12;;;;;;;17.25;11.02;;;22.00;99.90;;;19.97;100.00;93935.66;5002499;28;20046;-71
2022/09/14 09:11:45;;;;;;;18.10;11.32;;;21.60;99.90;;;20.18;100.00;93970.56;5037491;28;20050;-70
2022/09/14 09:14:25;;;;;;;18.38;12.30;;;21.30;99.90;;;20.90;100.00;93965.75;5035831;28;20064;-68
2022/09/14 09:16:56;;;;;;;14.20;9.95;;;21.60;99.90;;;20.85;100.00;94039.41;5035831;28;20206;-69
2022/09/14 09:19:30;;;;;;;15.95;11.82;;;22.20;99.90;;;21.03;100.00;94101.94;4998181;28;20080;-69
2022/09/14 09:22:02;;;;;;;15.73;10.85;;;22.50;99.90;;;20.80;100.00;94181.56;5003731;28;20050;-68
2022/09/14 09:24:33;;;;;;;13.93;8.73;;;22.60;99.90;;;21.09;100.00;94222.34;5033910;28;20069;-68
2022/09/14 09:27:13;;;;;;;19.33;9.35;;;22.60;99.90;;;20.42;100.00;94332.47;5026797;28;21361;-71
2022/09/14 09:29:40;;;;;;;15.60;9.20;;;22.60;99.90;;;20.56;100.00;94385.97;5003590;28;20128;-69
2022/09/14 09:32:14;;;;;;;18.63;10.48;;;22.30;99.90;;;20.06;100.00;94453.00;5001790;28;20053;-70
2022/09/14 09:34:41;;;;;;;15.15;10.20;;;22.10;99.90;;;20.34;100.00;94480.19;5033384;28;20087;-68
2022/09/14 09:37:19;;;;;;;17.02;10.20;;;22.00;99.90;;;20.65;100.00;94482.25;5000472;28;20064;-69
2022/09/14 09:39:46;;;;;;;13.85;10.05;;;22.10;99.90;;;20.53;100.00;94524.19;5034477;28;20061;-69
2022/09/14 09:42:23;;;;;;;14.50;8.25;;;22.10;99.90;;;20.93;100.00;94520.78;5012512;28;20116;-68
2022/09/14 09:44:58;;;;;;;19.92;9.60;;;22.30;99.90;;;20.65;100.00;94563.97;5003004;28;20069;-70
2022/09/14 09:47:38;;;;;;;17.10;8.30;;;22.30;99.90;;;20.59;100.00;94573.47;5003009;28;20058;-69
2022/09/14 09:50:20;;;;;;;18.05;9.43;;;22.20;99.90;;;20.29;100.00;94606.41;4998483;28;20050;-69
2022/09/14 09:52:53;;;;;;;15.15;8.80;;;22.10;99.90;;;20.35;100.00;94619.59;5037531;28;20045;-69
2022/09/14 09:55:25;;;;;;;17.90;9.43;;;21.80;99.90;;;20.29;100.00;94640.66;5036939;28;20076;-69
2022/09/14 09:57:53;;;;;;;;;;;21.60;99.90;;;20.51;100.00;94639.50;5033611;28;20046;-69
2022/09/14 10:00:27;;;;;;;12.55;7.45;;;21.50;99.90;;;20.14;100.00;94686.38;5006496;28;20521;-69
2022/09/14 10:02:55;;;;;;;14.05;7.63;;;21.40;99.90;;;20.14;100.00;94688.19;5003642;28;20055;-69
2022/09/14 10:05:27;;;;;;;14.20;6.53;;;21.40;99.90;;;20.29;100.00;94678.34;5035892;28;20057;-69
2022/09/14 10:08:01;;;;;;;12.23;6.20;;;21.60;99.90;;;20.72;100.00;94680.75;5035283;28;20061;-69
2022/09/14 10:10:34;;;;;;;9.23;5.32;;;21.80;99.90;;;21.26;100.00;94648.16;5034274;28;20042;-68
2022/09/14 10:13:05;;;;;;;8.73;5.00;;;22.30;99.90;;;21.88;100.00;94624.13;5003616;28;20042;-70
2022/09/14 10:15:35;;;;;;;11.17;3.60;;;23.10;99.90;;;21.84;100.00;94618.44;4998737;28;20155;-69
2022/09/14 10:18:10;;;;;;;7.18;3.20;;;23.40;99.90;;;21.89;100.00;94610.72;5035356;28;20416;-68
2022/09/14 10:20:44;;;;;;;7.85;3.72;;;23.40;99.90;;;21.63;100.00;94587.84;5035804;28;20089;-69
2022/09/14 10:23:16;;;;;;;13.40;3.22;;;23.40;99.90;;;21.83;100.00;95123.00;5002488;28;20088;-69
2022/09/14 10:26:13;;;;;;;6.63;2.20;;;23.30;99.90;;;21.27;100.00;95180.03;5000519;28;20524;-69
2022/09/14 10:28:47;;;;;;;6.55;2.72;;;23.10;99.90;;;21.05;100.00;95181.91;5002046;28;20774;-69
2022/09/14 10:31:14;;;;;;;6.70;2.72;;;22.90;99.90;;;20.94;100.00;95192.94;4999392;28;20511;-68
2022/09/14 10:33:41;;;;;;;8.00;3.17;;;22.60;99.90;;;20.66;100.00;95196.31;5001106;28;20059;-70